Dassault Systemes SA Current Ratio 2010-2023 | DASTY

Current and historical current ratio for Dassault Systemes SA (DASTY) from 2010 to 2023. Current ratio can be defined as a liquidity ratio that measures a company's ability to pay short-term obligations. Dassault Systemes SA current ratio for the three months ending September 30, 2023 was 1.58.
Dassault Systemes SA Current Ratio Historical Data
Date Current Assets Current Liabilities Current Ratio
2023-09-30 $5.70B $3.61B 1.58
2023-06-30 $5.55B $2.95B 1.88
2023-03-31 $5.56B $3.06B 1.82
2022-09-30 $4.54B $2.64B 1.72
2022-03-31 $5.23B $3.74B 1.40
2021-12-31 $5.58B $4.11B 1.36
2021-09-30 $4.72B $3.40B 1.39
2021-06-30 $5.20B $2.99B 1.74
2021-03-31 $5.05B $2.65B 1.91
2020-12-31 $4.30B $2.38B 1.80
2020-09-30 $4.36B $2.17B 2.01
2020-06-30 $4.07B $2.26B 1.80
2020-03-31 $4.11B $2.29B 1.79
2019-12-31 $4.11B $2.39B 1.72
2019-09-30 $7.86B $1.87B 4.20
2019-06-30 $4.69B $2.43B 1.93
2019-03-31 $4.65B $2.36B 1.97
2018-12-31 $4.96B $2.39B 2.08
2018-09-30 $4.26B $2.13B 2.01
2018-06-30 $4.79B $1.95B 2.46
2018-03-31 $4.68B $1.95B 2.40
2017-12-31 $4.07B $1.73B 2.36
2017-09-30 $4.25B $1.57B 2.70
2017-06-30 $4.06B $1.72B 2.36
2017-03-31 $4.05B $1.73B 2.34
2016-12-31 $3.95B $1.62B 2.44
2016-09-30 $3.65B $1.52B 2.40
2016-06-30 $3.88B $1.64B 2.37
2016-03-31 $3.70B $1.49B 2.48
2015-12-31 $3.60B $1.46B 2.47
2015-09-30 $2.53B $1.34B 1.89
2015-06-30 $2.48B $1.43B 1.74
2015-03-31 $2.62B $1.51B 1.74
2014-12-31 $2.63B $1.51B 1.74
2014-09-30 $2.39B $1.40B 1.71
2014-06-30 $2.70B $1.43B 1.90
2014-03-31 $3.31B $1.35B 2.45
2013-12-31 $3.21B $1.18B 2.72
2013-09-30 $3.04B $1.11B 2.75
2013-06-30 $3.26B $1.27B 2.56
2013-03-31 $2.79B $1.29B 2.15
2012-12-31 $2.48B $1.19B 2.08
2012-09-30 $2.48B $1.42B 1.75
2012-06-30 $2.84B $1.54B 1.84
2012-03-31 $2.85B $1.51B 1.88
2011-12-31 $2.87B $1.59B 1.81
2011-09-30 $2.57B $1.21B 2.13
2011-06-30 $2.50B $1.19B 2.10
2011-03-31 $2.39B $1.10B 2.16
2010-12-31 $2.22B $1.03B 2.16
2010-09-30 $1.86B $0.93B 1.99
2010-06-30 $1.88B $1.03B 1.83
2010-03-31 $1.85B $0.89B 2.07
2009-12-31 $2.10B $0.68B 3.09
2009-09-30 $1.90B $0.69B 2.77
2009-06-30 $1.75B $0.66B 2.63
2009-03-31 $1.77B $0.66B 2.67
Sector Industry Market Cap Revenue
Computer and Technology Computer Software $55.545B $6.441B
Dassault Systemes is a worldwide recognized leader in CAD/CAM/CAE and PDM II markets. The company's mission to provide solutions to enable customersto build their digital enterprise, by defining, simulating, managing and optimizing concurrently product, manufacturing process, and resources. In this virtual space, customers create innovative, high quality, safe and affordable products. The company delivers scaleable process and design-centric solutions on both Unix and Windows NT environments.
Stock Name Country Market Cap PE Ratio
Microsoft (MSFT) United States $3134.901B 38.15
Oracle (ORCL) United States $332.871B 27.09
Salesforce (CRM) United States $285.490B 47.62
Adobe (ADBE) United States $212.392B 35.51
Intuit (INTU) United States $173.911B 58.32
Synopsys (SNPS) United States $84.967B 61.29
Cadence Design Systems (CDNS) United States $83.264B 75.89
Autodesk (ADSK) United States $50.690B 49.89
ANSYS (ANSS) United States $29.176B 49.22
MicroStrategy (MSTR) United States $25.106B 50.02
PTC (PTC) United States $21.527B 63.40
SS&C Technologies Holdings (SSNC) United States $15.324B 15.09
Manhattan Associates (MANH) United States $14.641B 84.33
Open Text (OTEX) Canada $9.681B 10.39
Descartes Systems Group (DSGX) Canada $7.550B 66.20
Trend Micro (TMICY) Japan $7.360B 65.30
Pegasystems (PEGA) United States $5.067B 69.41
CommVault Systems (CVLT) United States $4.224B 75.38
Blackbaud (BLKB) United States $4.103B 36.71
ACI Worldwide (ACIW) United States $3.405B 17.49
Progress Software (PRGS) United States $2.237B 14.01
Verint Systems (VRNT) United States $1.906B 17.59
BlackBerry (BB) Canada $1.797B 0.00
Sapiens (SPNS) Israel $1.693B 23.99
PROS Holdings (PRO) United States $1.679B 0.00
Simulations Plus (SLP) United States $0.930B 68.41
Magic Software Enterprises (MGIC) Israel $0.576B 11.86
Rand Worldwide (RWWI) United States $0.573B 0.00
American Software (AMSWA) United States $0.374B 31.25
Canaan (CAN) China $0.280B 0.00
OptimizeRx (OPRX) United States $0.195B 0.00
Rigetti Computing (RGTI) United States $0.187B 0.00
Icad Inc (ICAD) United States $0.045B 0.00
NetSol Technologies (NTWK) United States $0.031B 0.00
Hanryu Holdings (HRYU) South Korea $0.026B 0.00
Neonode (NEON) Sweden $0.023B 0.00
Smith Micro Software (SMSI) United States $0.021B 0.00
Wetouch Technology (WETH) $0.020B 0.00
GSE Systems (GVP) United States $0.010B 0.00
SAP SE (SAP) Germany $0.000B 47.70